sensor_id;sensor_type;location;lat;lon;timestamp;P1;durP1;ratioP1;P2;durP2;ratioP2
73567;SDS011;61847;54.994;73.310;2022-07-06T00:00:32;43.92;;;6.25;;
73567;SDS011;61847;54.994;73.310;2022-07-06T00:03:02;26.30;;;5.35;;
73567;SDS011;61847;54.994;73.310;2022-07-06T00:05:29;105.63;;;6.88;;
73567;SDS011;61847;54.994;73.310;2022-07-06T00:07:55;22.13;;;5.57;;
73567;SDS011;61847;54.994;73.310;2022-07-06T00:10:21;26.58;;;5.50;;
73567;SDS011;61847;54.994;73.310;2022-07-06T00:12:48;18.83;;;5.43;;
73567;SDS011;61847;54.994;73.310;2022-07-06T00:15:14;21.88;;;6.40;;
73567;SDS011;61847;54.994;73.310;2022-07-06T00:17:41;25.17;;;7.15;;
73567;SDS011;61847;54.994;73.310;2022-07-06T00:20:07;27.17;;;7.57;;
73567;SDS011;61847;54.994;73.310;2022-07-06T00:22:34;30.75;;;8.77;;
73567;SDS011;61847;54.994;73.310;2022-07-06T00:25:00;61.72;;;10.40;;
73567;SDS011;61847;54.994;73.310;2022-07-06T00:27:26;74.28;;;12.00;;
73567;SDS011;61847;54.994;73.310;2022-07-06T00:29:54;66.38;;;11.15;;
73567;SDS011;61847;54.994;73.310;2022-07-06T00:32:20;119.10;;;13.85;;
73567;SDS011;61847;54.994;73.310;2022-07-06T00:34:46;119.28;;;12.88;;
73567;SDS011;61847;54.994;73.310;2022-07-06T00:37:12;79.93;;;11.15;;
73567;SDS011;61847;54.994;73.310;2022-07-06T00:39:41;52.67;;;11.38;;
73567;SDS011;61847;54.994;73.310;2022-07-06T00:42:07;46.22;;;11.00;;
73567;SDS011;61847;54.994;73.310;2022-07-06T00:44:33;167.50;;;12.85;;
73567;SDS011;61847;54.994;73.310;2022-07-06T00:46:59;104.28;;;10.77;;
73567;SDS011;61847;54.994;73.310;2022-07-06T00:49:35;54.67;;;12.18;;
73567;SDS011;61847;54.994;73.310;2022-07-06T00:52:20;45.50;;;11.77;;
73567;SDS011;61847;54.994;73.310;2022-07-06T00:54:46;47.63;;;12.05;;
73567;SDS011;61847;54.994;73.310;2022-07-06T00:57:13;51.35;;;11.63;;
73567;SDS011;61847;54.994;73.310;2022-07-06T00:59:39;58.65;;;13.57;;
73567;SDS011;61847;54.994;73.310;2022-07-06T01:02:05;58.90;;;13.73;;
73567;SDS011;61847;54.994;73.310;2022-07-06T01:04:32;59.08;;;14.07;;
73567;SDS011;61847;54.994;73.310;2022-07-06T01:07:01;46.38;;;13.35;;
73567;SDS011;61847;54.994;73.310;2022-07-06T01:09:28;60.90;;;13.90;;
73567;SDS011;61847;54.994;73.310;2022-07-06T01:11:55;45.25;;;13.30;;
73567;SDS011;61847;54.994;73.310;2022-07-06T01:14:31;53.97;;;17.02;;
73567;SDS011;61847;54.994;73.310;2022-07-06T01:16:58;58.03;;;16.80;;
73567;SDS011;61847;54.994;73.310;2022-07-06T01:19:25;69.63;;;20.92;;
73567;SDS011;61847;54.994;73.310;2022-07-06T01:21:51;73.20;;;21.48;;
73567;SDS011;61847;54.994;73.310;2022-07-06T01:24:18;83.57;;;25.65;;
73567;SDS011;61847;54.994;73.310;2022-07-06T01:26:44;68.65;;;24.52;;
73567;SDS011;61847;54.994;73.310;2022-07-06T01:29:16;83.07;;;27.45;;
73567;SDS011;61847;54.994;73.310;2022-07-06T01:31:49;115.28;;;38.53;;
73567;SDS011;61847;54.994;73.310;2022-07-06T01:34:21;100.65;;;35.67;;
73567;SDS011;61847;54.994;73.310;2022-07-06T01:36:47;85.97;;;33.08;;
73567;SDS011;61847;54.994;73.310;2022-07-06T01:39:23;88.95;;;33.72;;
73567;SDS011;61847;54.994;73.310;2022-07-06T01:41:49;87.10;;;30.70;;
73567;SDS011;61847;54.994;73.310;2022-07-06T01:44:15;78.25;;;30.05;;
73567;SDS011;61847;54.994;73.310;2022-07-06T01:46:46;71.07;;;28.48;;
73567;SDS011;61847;54.994;73.310;2022-07-06T01:49:12;70.95;;;28.05;;
73567;SDS011;61847;54.994;73.310;2022-07-06T01:51:39;65.40;;;26.63;;
73567;SDS011;61847;54.994;73.310;2022-07-06T01:54:08;63.22;;;25.98;;
73567;SDS011;61847;54.994;73.310;2022-07-06T01:56:40;75.60;;;29.55;;
73567;SDS011;61847;54.994;73.310;2022-07-06T01:59:06;76.85;;;29.80;;
73567;SDS011;61847;54.994;73.310;2022-07-06T02:01:32;74.35;;;31.10;;
73567;SDS011;61847;54.994;73.310;2022-07-06T02:03:58;74.05;;;30.10;;
73567;SDS011;61847;54.994;73.310;2022-07-06T02:06:34;79.40;;;29.55;;
73567;SDS011;61847;54.994;73.310;2022-07-06T02:09:06;79.55;;;32.00;;
73567;SDS011;61847;54.994;73.310;2022-07-06T02:11:33;89.90;;;34.05;;
73567;SDS011;61847;54.994;73.310;2022-07-06T02:14:03;94.93;;;32.95;;
73567;SDS011;61847;54.994;73.310;2022-07-06T02:16:29;92.40;;;33.90;;
73567;SDS011;61847;54.994;73.310;2022-07-06T02:18:57;94.65;;;33.97;;
73567;SDS011;61847;54.994;73.310;2022-07-06T02:21:32;114.90;;;35.05;;
73567;SDS011;61847;54.994;73.310;2022-07-06T02:24:08;106.13;;;36.00;;
73567;SDS011;61847;54.994;73.310;2022-07-06T02:26:35;120.07;;;36.03;;
73567;SDS011;61847;54.994;73.310;2022-07-06T02:29:01;114.82;;;36.38;;
73567;SDS011;61847;54.994;73.310;2022-07-06T02:31:28;125.78;;;39.40;;
73567;SDS011;61847;54.994;73.310;2022-07-06T02:33:54;131.15;;;39.78;;
73567;SDS011;61847;54.994;73.310;2022-07-06T02:36:20;116.50;;;38.47;;
73567;SDS011;61847;54.994;73.310;2022-07-06T02:38:46;136.05;;;42.78;;
73567;SDS011;61847;54.994;73.310;2022-07-06T02:41:12;134.75;;;42.85;;
73567;SDS011;61847;54.994;73.310;2022-07-06T02:43:39;117.60;;;38.03;;
73567;SDS011;61847;54.994;73.310;2022-07-06T02:46:05;135.30;;;40.60;;
73567;SDS011;61847;54.994;73.310;2022-07-06T02:48:33;133.10;;;41.88;;
73567;SDS011;61847;54.994;73.310;2022-07-06T02:50:59;109.40;;;37.40;;
73567;SDS011;61847;54.994;73.310;2022-07-06T02:53:25;100.68;;;35.08;;
73567;SDS011;61847;54.994;73.310;2022-07-06T02:55:54;118.35;;;37.20;;
73567;SDS011;61847;54.994;73.310;2022-07-06T02:58:20;135.15;;;39.47;;
73567;SDS011;61847;54.994;73.310;2022-07-06T03:00:46;108.97;;;34.67;;
73567;SDS011;61847;54.994;73.310;2022-07-06T03:03:19;95.70;;;30.90;;
73567;SDS011;61847;54.994;73.310;2022-07-06T03:05:45;87.38;;;26.75;;
73567;SDS011;61847;54.994;73.310;2022-07-06T03:08:15;76.43;;;24.80;;
73567;SDS011;61847;54.994;73.310;2022-07-06T03:10:44;49.35;;;22.58;;
73567;SDS011;61847;54.994;73.310;2022-07-06T03:13:11;45.03;;;20.05;;
73567;SDS011;61847;54.994;73.310;2022-07-06T03:15:37;38.03;;;18.75;;
73567;SDS011;61847;54.994;73.310;2022-07-06T03:18:03;38.33;;;17.75;;
73567;SDS011;61847;54.994;73.310;2022-07-06T03:20:30;46.75;;;20.08;;
73567;SDS011;61847;54.994;73.310;2022-07-06T03:22:56;45.33;;;21.40;;
73567;SDS011;61847;54.994;73.310;2022-07-06T03:25:23;47.83;;;20.80;;
73567;SDS011;61847;54.994;73.310;2022-07-06T03:27:49;42.45;;;18.33;;
73567;SDS011;61847;54.994;73.310;2022-07-06T03:30:17;44.63;;;18.15;;
73567;SDS011;61847;54.994;73.310;2022-07-06T03:32:49;40.47;;;18.92;;
73567;SDS011;61847;54.994;73.310;2022-07-06T03:35:17;40.80;;;19.65;;
73567;SDS011;61847;54.994;73.310;2022-07-06T03:37:44;41.80;;;19.48;;
73567;SDS011;61847;54.994;73.310;2022-07-06T03:40:10;38.17;;;17.63;;
73567;SDS011;61847;54.994;73.310;2022-07-06T03:42:37;30.77;;;15.00;;
73567;SDS011;61847;54.994;73.310;2022-07-06T03:45:06;39.63;;;17.52;;
73567;SDS011;61847;54.994;73.310;2022-07-06T03:47:33;27.55;;;15.00;;
73567;SDS011;61847;54.994;73.310;2022-07-06T03:49:59;28.65;;;15.70;;
73567;SDS011;61847;54.994;73.310;2022-07-06T03:52:26;28.23;;;14.60;;
73567;SDS011;61847;54.994;73.310;2022-07-06T03:54:55;37.35;;;16.13;;
73567;SDS011;61847;54.994;73.310;2022-07-06T03:57:31;31.80;;;16.13;;
73567;SDS011;61847;54.994;73.310;2022-07-06T04:00:01;32.60;;;16.48;;
73567;SDS011;61847;54.994;73.310;2022-07-06T04:02:29;42.80;;;17.17;;
73567;SDS011;61847;54.994;73.310;2022-07-06T04:04:55;41.40;;;18.00;;
73567;SDS011;61847;54.994;73.310;2022-07-06T04:07:22;45.00;;;16.65;;
73567;SDS011;61847;54.994;73.310;2022-07-06T04:09:58;38.22;;;16.05;;
73567;SDS011;61847;54.994;73.310;2022-07-06T04:12:25;34.63;;;16.23;;
73567;SDS011;61847;54.994;73.310;2022-07-06T04:14:51;39.72;;;17.52;;
73567;SDS011;61847;54.994;73.310;2022-07-06T04:17:18;48.20;;;17.35;;
73567;SDS011;61847;54.994;73.310;2022-07-06T04:20:02;50.58;;;15.10;;
73567;SDS011;61847;54.994;73.310;2022-07-06T04:22:38;51.35;;;16.92;;
73567;SDS011;61847;54.994;73.310;2022-07-06T04:25:05;58.08;;;18.45;;
73567;SDS011;61847;54.994;73.310;2022-07-06T04:27:31;45.85;;;17.00;;
73567;SDS011;61847;54.994;73.310;2022-07-06T04:30:08;45.45;;;17.85;;
73567;SDS011;61847;54.994;73.310;2022-07-06T04:32:36;43.17;;;17.88;;
73567;SDS011;61847;54.994;73.310;2022-07-06T04:35:03;47.47;;;16.95;;
73567;SDS011;61847;54.994;73.310;2022-07-06T04:37:31;54.90;;;18.33;;
73567;SDS011;61847;54.994;73.310;2022-07-06T04:39:57;46.90;;;18.33;;
73567;SDS011;61847;54.994;73.310;2022-07-06T04:42:23;47.20;;;14.43;;
73567;SDS011;61847;54.994;73.310;2022-07-06T04:44:50;38.75;;;14.80;;
73567;SDS011;61847;54.994;73.310;2022-07-06T04:47:17;70.25;;;18.33;;
73567;SDS011;61847;54.994;73.310;2022-07-06T04:49:44;45.33;;;15.98;;
73567;SDS011;61847;54.994;73.310;2022-07-06T04:52:12;43.90;;;15.25;;
73567;SDS011;61847;54.994;73.310;2022-07-06T04:54:38;58.33;;;16.98;;
73567;SDS011;61847;54.994;73.310;2022-07-06T04:57:05;39.75;;;14.63;;
73567;SDS011;61847;54.994;73.310;2022-07-06T04:59:32;53.22;;;16.33;;
73567;SDS011;61847;54.994;73.310;2022-07-06T05:02:04;47.17;;;16.63;;
73567;SDS011;61847;54.994;73.310;2022-07-06T05:04:34;39.92;;;18.20;;
73567;SDS011;61847;54.994;73.310;2022-07-06T05:07:05;46.40;;;17.00;;
73567;SDS011;61847;54.994;73.310;2022-07-06T05:09:32;49.63;;;16.52;;
73567;SDS011;61847;54.994;73.310;2022-07-06T05:11:58;52.13;;;16.58;;
73567;SDS011;61847;54.994;73.310;2022-07-06T05:14:25;51.50;;;17.30;;
73567;SDS011;61847;54.994;73.310;2022-07-06T05:16:53;46.83;;;17.10;;
73567;SDS011;61847;54.994;73.310;2022-07-06T05:19:22;45.92;;;17.75;;
73567;SDS011;61847;54.994;73.310;2022-07-06T05:21:48;45.50;;;16.25;;
73567;SDS011;61847;54.994;73.310;2022-07-06T05:24:14;55.60;;;16.95;;
73567;SDS011;61847;54.994;73.310;2022-07-06T05:26:46;36.88;;;13.73;;
73567;SDS011;61847;54.994;73.310;2022-07-06T05:29:13;50.13;;;15.25;;
73567;SDS011;61847;54.994;73.310;2022-07-06T05:31:39;73.70;;;16.05;;
73567;SDS011;61847;54.994;73.310;2022-07-06T05:34:05;52.55;;;16.75;;
73567;SDS011;61847;54.994;73.310;2022-07-06T05:36:43;47.78;;;15.68;;
73567;SDS011;61847;54.994;73.310;2022-07-06T05:39:10;40.40;;;15.15;;
73567;SDS011;61847;54.994;73.310;2022-07-06T05:41:36;51.55;;;15.68;;
73567;SDS011;61847;54.994;73.310;2022-07-06T05:44:03;46.25;;;13.77;;
73567;SDS011;61847;54.994;73.310;2022-07-06T05:46:29;42.83;;;13.25;;
73567;SDS011;61847;54.994;73.310;2022-07-06T05:48:56;43.47;;;11.55;;
73567;SDS011;61847;54.994;73.310;2022-07-06T05:51:40;30.80;;;11.55;;
73567;SDS011;61847;54.994;73.310;2022-07-06T05:54:07;34.63;;;10.65;;
73567;SDS011;61847;54.994;73.310;2022-07-06T05:56:33;35.08;;;11.63;;
73567;SDS011;61847;54.994;73.310;2022-07-06T05:59:01;35.47;;;12.60;;
73567;SDS011;61847;54.994;73.310;2022-07-06T06:01:29;38.55;;;13.07;;
73567;SDS011;61847;54.994;73.310;2022-07-06T06:04:05;32.22;;;10.93;;
73567;SDS011;61847;54.994;73.310;2022-07-06T06:06:32;39.58;;;9.63;;
73567;SDS011;61847;54.994;73.310;2022-07-06T06:08:59;35.67;;;9.75;;
73567;SDS011;61847;54.994;73.310;2022-07-06T06:11:35;28.45;;;10.07;;
73567;SDS011;61847;54.994;73.310;2022-07-06T06:14:02;26.13;;;9.70;;
73567;SDS011;61847;54.994;73.310;2022-07-06T06:16:29;22.08;;;10.70;;
73567;SDS011;61847;54.994;73.310;2022-07-06T06:18:55;31.50;;;10.85;;
73567;SDS011;61847;54.994;73.310;2022-07-06T06:21:21;34.80;;;11.32;;
73567;SDS011;61847;54.994;73.310;2022-07-06T06:23:48;35.15;;;12.50;;
73567;SDS011;61847;54.994;73.310;2022-07-06T06:26:14;49.55;;;12.02;;
73567;SDS011;61847;54.994;73.310;2022-07-06T06:28:40;96.50;;;13.30;;
73567;SDS011;61847;54.994;73.310;2022-07-06T06:31:07;34.38;;;10.43;;
73567;SDS011;61847;54.994;73.310;2022-07-06T06:33:33;34.70;;;10.90;;
73567;SDS011;61847;54.994;73.310;2022-07-06T06:35:59;29.00;;;10.80;;
73567;SDS011;61847;54.994;73.310;2022-07-06T06:38:43;32.33;;;9.95;;
73567;SDS011;61847;54.994;73.310;2022-07-06T06:41:12;32.15;;;12.75;;
73567;SDS011;61847;54.994;73.310;2022-07-06T06:43:39;28.48;;;8.80;;
73567;SDS011;61847;54.994;73.310;2022-07-06T06:46:10;27.90;;;10.40;;
73567;SDS011;61847;54.994;73.310;2022-07-06T06:48:37;24.63;;;9.95;;
73567;SDS011;61847;54.994;73.310;2022-07-06T06:51:03;37.55;;;10.15;;
73567;SDS011;61847;54.994;73.310;2022-07-06T06:53:30;28.23;;;9.07;;
73567;SDS011;61847;54.994;73.310;2022-07-06T06:55:59;26.40;;;8.98;;
73567;SDS011;61847;54.994;73.310;2022-07-06T06:58:26;30.23;;;9.02;;
73567;SDS011;61847;54.994;73.310;2022-07-06T07:00:53;23.67;;;7.57;;
73567;SDS011;61847;54.994;73.310;2022-07-06T07:03:20;43.53;;;8.32;;
73567;SDS011;61847;54.994;73.310;2022-07-06T07:05:49;35.13;;;10.48;;
73567;SDS011;61847;54.994;73.310;2022-07-06T07:08:19;22.92;;;8.23;;
73567;SDS011;61847;54.994;73.310;2022-07-06T07:10:51;24.73;;;7.38;;
73567;SDS011;61847;54.994;73.310;2022-07-06T07:13:18;31.50;;;9.32;;
73567;SDS011;61847;54.994;73.310;2022-07-06T07:15:44;46.17;;;10.05;;
73567;SDS011;61847;54.994;73.310;2022-07-06T07:18:10;30.63;;;8.82;;
73567;SDS011;61847;54.994;73.310;2022-07-06T07:20:36;42.25;;;10.98;;
73567;SDS011;61847;54.994;73.310;2022-07-06T07:23:03;36.78;;;10.30;;
73567;SDS011;61847;54.994;73.310;2022-07-06T07:25:29;28.00;;;10.18;;
73567;SDS011;61847;54.994;73.310;2022-07-06T07:27:55;44.78;;;11.55;;
73567;SDS011;61847;54.994;73.310;2022-07-06T07:30:21;39.17;;;11.48;;
73567;SDS011;61847;54.994;73.310;2022-07-06T07:32:47;35.97;;;10.82;;
73567;SDS011;61847;54.994;73.310;2022-07-06T07:35:14;34.20;;;10.00;;
73567;SDS011;61847;54.994;73.310;2022-07-06T07:37:42;47.67;;;11.40;;
73567;SDS011;61847;54.994;73.310;2022-07-06T07:40:08;33.65;;;10.30;;
73567;SDS011;61847;54.994;73.310;2022-07-06T07:42:40;37.20;;;10.63;;
73567;SDS011;61847;54.994;73.310;2022-07-06T07:45:17;39.40;;;10.15;;
73567;SDS011;61847;54.994;73.310;2022-07-06T07:47:45;45.40;;;12.10;;
73567;SDS011;61847;54.994;73.310;2022-07-06T07:50:11;33.78;;;10.05;;
73567;SDS011;61847;54.994;73.310;2022-07-06T07:52:38;27.42;;;9.10;;
73567;SDS011;61847;54.994;73.310;2022-07-06T07:55:04;30.08;;;9.38;;
73567;SDS011;61847;54.994;73.310;2022-07-06T07:57:31;31.75;;;10.48;;
73567;SDS011;61847;54.994;73.310;2022-07-06T07:59:57;33.83;;;10.38;;
73567;SDS011;61847;54.994;73.310;2022-07-06T08:02:23;30.15;;;9.75;;
73567;SDS011;61847;54.994;73.310;2022-07-06T08:04:49;39.35;;;13.15;;
73567;SDS011;61847;54.994;73.310;2022-07-06T08:07:17;43.60;;;12.40;;
73567;SDS011;61847;54.994;73.310;2022-07-06T08:09:43;37.95;;;11.35;;
73567;SDS011;61847;54.994;73.310;2022-07-06T08:12:09;44.97;;;10.40;;
73567;SDS011;61847;54.994;73.310;2022-07-06T08:14:35;61.47;;;13.23;;
73567;SDS011;61847;54.994;73.310;2022-07-06T08:17:03;51.47;;;13.05;;
73567;SDS011;61847;54.994;73.310;2022-07-06T08:19:29;42.17;;;13.02;;
73567;SDS011;61847;54.994;73.310;2022-07-06T08:21:56;50.90;;;13.45;;
73567;SDS011;61847;54.994;73.310;2022-07-06T08:24:23;42.67;;;13.60;;
73567;SDS011;61847;54.994;73.310;2022-07-06T08:26:50;55.78;;;13.27;;
73567;SDS011;61847;54.994;73.310;2022-07-06T08:29:17;46.63;;;13.38;;
73567;SDS011;61847;54.994;73.310;2022-07-06T08:31:43;65.80;;;16.02;;
73567;SDS011;61847;54.994;73.310;2022-07-06T08:34:10;52.30;;;13.73;;
73567;SDS011;61847;54.994;73.310;2022-07-06T08:36:38;29.92;;;8.85;;
73567;SDS011;61847;54.994;73.310;2022-07-06T08:39:04;26.17;;;10.18;;
73567;SDS011;61847;54.994;73.310;2022-07-06T08:41:31;50.95;;;11.30;;
73567;SDS011;61847;54.994;73.310;2022-07-06T08:43:58;34.63;;;10.95;;
73567;SDS011;61847;54.994;73.310;2022-07-06T08:46:24;37.47;;;11.05;;
73567;SDS011;61847;54.994;73.310;2022-07-06T08:48:53;40.28;;;10.32;;
73567;SDS011;61847;54.994;73.310;2022-07-06T08:51:21;41.97;;;12.73;;
73567;SDS011;61847;54.994;73.310;2022-07-06T08:53:48;43.65;;;13.00;;
73567;SDS011;61847;54.994;73.310;2022-07-06T08:56:15;33.97;;;12.25;;
73567;SDS011;61847;54.994;73.310;2022-07-06T08:58:43;48.25;;;14.05;;
73567;SDS011;61847;54.994;73.310;2022-07-06T09:01:20;48.72;;;12.85;;
73567;SDS011;61847;54.994;73.310;2022-07-06T09:03:47;34.10;;;12.73;;
73567;SDS011;61847;54.994;73.310;2022-07-06T09:06:19;47.03;;;13.02;;
73567;SDS011;61847;54.994;73.310;2022-07-06T09:08:55;40.28;;;13.20;;
73567;SDS011;61847;54.994;73.310;2022-07-06T09:11:22;39.33;;;13.38;;
73567;SDS011;61847;54.994;73.310;2022-07-06T09:13:50;48.90;;;16.85;;
73567;SDS011;61847;54.994;73.310;2022-07-06T09:16:17;52.28;;;17.45;;
73567;SDS011;61847;54.994;73.310;2022-07-06T09:18:50;47.13;;;16.05;;
73567;SDS011;61847;54.994;73.310;2022-07-06T09:21:22;41.42;;;17.33;;
73567;SDS011;61847;54.994;73.310;2022-07-06T09:23:54;52.33;;;17.60;;
73567;SDS011;61847;54.994;73.310;2022-07-06T09:26:21;47.35;;;16.90;;
73567;SDS011;61847;54.994;73.310;2022-07-06T09:28:48;50.92;;;17.58;;
73567;SDS011;61847;54.994;73.310;2022-07-06T09:31:15;54.90;;;17.45;;
73567;SDS011;61847;54.994;73.310;2022-07-06T09:33:53;42.45;;;14.35;;
73567;SDS011;61847;54.994;73.310;2022-07-06T09:36:36;37.42;;;13.05;;
73567;SDS011;61847;54.994;73.310;2022-07-06T09:39:24;31.75;;;12.73;;
73567;SDS011;61847;54.994;73.310;2022-07-06T09:41:52;34.97;;;13.48;;
73567;SDS011;61847;54.994;73.310;2022-07-06T09:44:26;34.50;;;13.75;;
73567;SDS011;61847;54.994;73.310;2022-07-06T09:47:03;34.42;;;13.48;;
73567;SDS011;61847;54.994;73.310;2022-07-06T09:49:32;34.90;;;13.18;;
73567;SDS011;61847;54.994;73.310;2022-07-06T09:51:59;37.45;;;12.73;;
73567;SDS011;61847;54.994;73.310;2022-07-06T09:54:27;37.45;;;13.73;;
73567;SDS011;61847;54.994;73.310;2022-07-06T09:56:54;38.13;;;14.45;;
73567;SDS011;61847;54.994;73.310;2022-07-06T09:59:23;29.63;;;14.18;;
73567;SDS011;61847;54.994;73.310;2022-07-06T10:01:59;33.05;;;12.75;;
73567;SDS011;61847;54.994;73.310;2022-07-06T10:04:34;26.60;;;12.57;;
73567;SDS011;61847;54.994;73.310;2022-07-06T10:07:00;26.00;;;12.68;;
73567;SDS011;61847;54.994;73.310;2022-07-06T10:09:27;29.35;;;12.23;;
73567;SDS011;61847;54.994;73.310;2022-07-06T10:11:58;42.30;;;11.77;;
73567;SDS011;61847;54.994;73.310;2022-07-06T10:14:29;50.03;;;13.52;;
73567;SDS011;61847;54.994;73.310;2022-07-06T10:16:56;29.80;;;12.00;;
73567;SDS011;61847;54.994;73.310;2022-07-06T10:19:25;27.88;;;11.70;;
73567;SDS011;61847;54.994;73.310;2022-07-06T10:21:59;33.67;;;10.77;;
73567;SDS011;61847;54.994;73.310;2022-07-06T10:24:27;25.85;;;9.70;;
73567;SDS011;61847;54.994;73.310;2022-07-06T10:26:53;26.77;;;10.07;;
73567;SDS011;61847;54.994;73.310;2022-07-06T10:29:20;29.85;;;9.63;;
73567;SDS011;61847;54.994;73.310;2022-07-06T10:31:52;24.52;;;9.15;;
73567;SDS011;61847;54.994;73.310;2022-07-06T10:34:24;17.75;;;8.98;;
73567;SDS011;61847;54.994;73.310;2022-07-06T10:36:51;15.27;;;9.70;;
73567;SDS011;61847;54.994;73.310;2022-07-06T10:39:33;19.30;;;9.57;;
73567;SDS011;61847;54.994;73.310;2022-07-06T10:42:44;12.35;;;7.10;;
73567;SDS011;61847;54.994;73.310;2022-07-06T10:45:13;26.35;;;7.65;;
73567;SDS011;61847;54.994;73.310;2022-07-06T10:47:44;18.33;;;7.68;;
73567;SDS011;61847;54.994;73.310;2022-07-06T10:50:11;20.42;;;8.10;;
73567;SDS011;61847;54.994;73.310;2022-07-06T10:52:48;17.45;;;7.82;;
73567;SDS011;61847;54.994;73.310;2022-07-06T10:57:56;31.52;;;8.30;;
73567;SDS011;61847;54.994;73.310;2022-07-06T11:00:51;30.08;;;17.88;;
73567;SDS011;61847;54.994;73.310;2022-07-06T11:03:38;16.13;;;8.07;;
73567;SDS011;61847;54.994;73.310;2022-07-06T11:08:51;13.68;;;7.47;;
73567;SDS011;61847;54.994;73.310;2022-07-06T11:16:34;15.13;;;6.85;;
73567;SDS011;61847;54.994;73.310;2022-07-06T11:19:23;17.00;;;7.15;;
73567;SDS011;61847;54.994;73.310;2022-07-06T11:21:51;17.15;;;6.85;;
73567;SDS011;61847;54.994;73.310;2022-07-06T11:24:24;14.25;;;7.47;;
73567;SDS011;61847;54.994;73.310;2022-07-06T11:26:55;21.40;;;7.97;;
73567;SDS011;61847;54.994;73.310;2022-07-06T11:29:24;16.10;;;7.60;;
73567;SDS011;61847;54.994;73.310;2022-07-06T11:31:54;19.80;;;10.10;;
73567;SDS011;61847;54.994;73.310;2022-07-06T11:34:36;15.98;;;8.00;;
73567;SDS011;61847;54.994;73.310;2022-07-06T11:37:04;13.88;;;7.88;;
73567;SDS011;61847;54.994;73.310;2022-07-06T11:39:38;13.52;;;7.30;;
73567;SDS011;61847;54.994;73.310;2022-07-06T11:42:09;19.15;;;10.32;;
73567;SDS011;61847;54.994;73.310;2022-07-06T11:44:38;13.48;;;6.00;;
73567;SDS011;61847;54.994;73.310;2022-07-06T11:47:05;18.25;;;7.20;;
73567;SDS011;61847;54.994;73.310;2022-07-06T11:49:34;13.80;;;6.75;;
73567;SDS011;61847;54.994;73.310;2022-07-06T11:52:10;11.35;;;5.93;;
73567;SDS011;61847;54.994;73.310;2022-07-06T11:54:39;13.40;;;6.50;;
73567;SDS011;61847;54.994;73.310;2022-07-06T11:57:09;9.35;;;6.10;;
73567;SDS011;61847;54.994;73.310;2022-07-06T11:59:38;38.38;;;25.23;;
73567;SDS011;61847;54.994;73.310;2022-07-06T12:02:06;14.68;;;5.97;;
73567;SDS011;61847;54.994;73.310;2022-07-06T12:04:38;10.60;;;6.28;;
73567;SDS011;61847;54.994;73.310;2022-07-06T12:07:09;12.65;;;7.35;;
73567;SDS011;61847;54.994;73.310;2022-07-06T12:09:40;23.40;;;11.50;;
73567;SDS011;61847;54.994;73.310;2022-07-06T12:12:08;15.43;;;10.15;;
73567;SDS011;61847;54.994;73.310;2022-07-06T12:14:39;19.42;;;11.45;;
73567;SDS011;61847;54.994;73.310;2022-07-06T12:17:10;11.07;;;5.40;;
73567;SDS011;61847;54.994;73.310;2022-07-06T12:19:40;8.05;;;5.50;;
73567;SDS011;61847;54.994;73.310;2022-07-06T12:22:10;17.48;;;5.80;;
73567;SDS011;61847;54.994;73.310;2022-07-06T12:24:37;10.68;;;5.85;;
73567;SDS011;61847;54.994;73.310;2022-07-06T12:27:14;22.10;;;9.38;;
73567;SDS011;61847;54.994;73.310;2022-07-06T12:29:42;10.63;;;6.63;;
73567;SDS011;61847;54.994;73.310;2022-07-06T12:32:19;7.70;;;5.40;;
73567;SDS011;61847;54.994;73.310;2022-07-06T12:35:08;12.00;;;4.75;;
73567;SDS011;61847;54.994;73.310;2022-07-06T12:37:35;15.13;;;4.85;;
73567;SDS011;61847;54.994;73.310;2022-07-06T12:40:02;7.57;;;4.50;;
73567;SDS011;61847;54.994;73.310;2022-07-06T12:42:45;7.22;;;4.90;;
73567;SDS011;61847;54.994;73.310;2022-07-06T12:45:12;13.82;;;5.07;;
73567;SDS011;61847;54.994;73.310;2022-07-06T12:47:39;9.00;;;4.47;;
73567;SDS011;61847;54.994;73.310;2022-07-06T12:50:13;7.88;;;4.93;;
73567;SDS011;61847;54.994;73.310;2022-07-06T12:52:39;11.18;;;4.50;;
73567;SDS011;61847;54.994;73.310;2022-07-06T12:55:06;12.57;;;4.40;;
73567;SDS011;61847;54.994;73.310;2022-07-06T12:57:45;12.95;;;4.63;;
73567;SDS011;61847;54.994;73.310;2022-07-06T13:00:13;15.63;;;5.63;;
73567;SDS011;61847;54.994;73.310;2022-07-06T13:02:49;24.25;;;18.23;;
73567;SDS011;61847;54.994;73.310;2022-07-06T13:05:22;21.33;;;14.98;;
73567;SDS011;61847;54.994;73.310;2022-07-06T13:07:57;6.80;;;4.60;;
73567;SDS011;61847;54.994;73.310;2022-07-06T13:10:24;10.05;;;4.57;;
73567;SDS011;61847;54.994;73.310;2022-07-06T13:12:50;10.82;;;4.55;;
73567;SDS011;61847;54.994;73.310;2022-07-06T13:15:17;11.60;;;5.00;;
73567;SDS011;61847;54.994;73.310;2022-07-06T13:17:43;11.65;;;4.65;;
73567;SDS011;61847;54.994;73.310;2022-07-06T13:20:11;10.75;;;4.18;;
73567;SDS011;61847;54.994;73.310;2022-07-06T13:22:39;6.78;;;4.00;;
73567;SDS011;61847;54.994;73.310;2022-07-06T13:25:05;8.95;;;4.50;;
73567;SDS011;61847;54.994;73.310;2022-07-06T13:27:32;8.65;;;3.90;;
73567;SDS011;61847;54.994;73.310;2022-07-06T13:29:58;5.72;;;3.95;;
73567;SDS011;61847;54.994;73.310;2022-07-06T13:32:24;8.38;;;4.72;;
73567;SDS011;61847;54.994;73.310;2022-07-06T13:34:51;8.70;;;4.50;;
73567;SDS011;61847;54.994;73.310;2022-07-06T13:37:17;7.95;;;3.67;;
73567;SDS011;61847;54.994;73.310;2022-07-06T13:39:45;7.03;;;4.05;;
73567;SDS011;61847;54.994;73.310;2022-07-06T13:42:22;6.93;;;4.32;;
73567;SDS011;61847;54.994;73.310;2022-07-06T13:44:50;7.72;;;4.07;;
73567;SDS011;61847;54.994;73.310;2022-07-06T13:47:18;14.25;;;6.18;;
73567;SDS011;61847;54.994;73.310;2022-07-06T13:49:44;9.65;;;4.90;;
73567;SDS011;61847;54.994;73.310;2022-07-06T13:52:13;8.10;;;3.90;;
73567;SDS011;61847;54.994;73.310;2022-07-06T13:54:39;10.88;;;3.45;;
73567;SDS011;61847;54.994;73.310;2022-07-06T13:57:14;11.57;;;4.25;;
73567;SDS011;61847;54.994;73.310;2022-07-06T13:59:41;6.43;;;3.92;;
73567;SDS011;61847;54.994;73.310;2022-07-06T14:02:08;4.75;;;3.55;;
73567;SDS011;61847;54.994;73.310;2022-07-06T14:04:35;13.75;;;3.60;;
73567;SDS011;61847;54.994;73.310;2022-07-06T14:07:02;8.80;;;3.80;;
73567;SDS011;61847;54.994;73.310;2022-07-06T14:09:28;13.35;;;8.48;;
73567;SDS011;61847;54.994;73.310;2022-07-06T14:11:55;15.80;;;5.47;;
73567;SDS011;61847;54.994;73.310;2022-07-06T14:14:21;9.38;;;3.53;;
73567;SDS011;61847;54.994;73.310;2022-07-06T14:16:47;7.65;;;3.55;;
73567;SDS011;61847;54.994;73.310;2022-07-06T14:19:13;6.47;;;3.35;;
73567;SDS011;61847;54.994;73.310;2022-07-06T14:21:39;8.18;;;6.00;;
73567;SDS011;61847;54.994;73.310;2022-07-06T14:24:06;6.28;;;3.88;;
73567;SDS011;61847;54.994;73.310;2022-07-06T14:26:32;33.30;;;20.80;;
73567;SDS011;61847;54.994;73.310;2022-07-06T14:29:09;8.70;;;4.00;;
73567;SDS011;61847;54.994;73.310;2022-07-06T14:31:35;7.68;;;3.53;;
73567;SDS011;61847;54.994;73.310;2022-07-06T14:34:06;9.13;;;3.30;;